| time (UTC) | temp F | wind direction | speed MPH | gust MPH | rain 1hr in | rain 24hr in | rain mn in | humidity % | barometer mb |
| 20260507121101 | 49 | 169 | 2.0 | 4.0 | 0.00 | 0.17 | 0.08 | 88 | 1007.2 |
| 20260507120532 | 49 | 174 | 3.0 | 4.0 | 0.00 | 0.17 | 0.08 | 89 | 1007.3 |
| 20260507120021 | 49 | 132 | 1.0 | 3.0 | 0.00 | 0.17 | 0.08 | 91 | 1007.3 |
| 20260507115532 | 48 | 132 | 2.0 | 3.0 | 0.00 | 0.17 | 0.08 | 91 | 1007.3 |
| 20260507115023 | 49 | 79 | 0.0 | 3.0 | 0.00 | 0.17 | 0.08 | 92 | 1007.1 |
| 20260507114533 | 48 | 79 | 1.0 | 3.0 | 0.00 | 0.17 | 0.08 | 92 | 1007.0 |
| 20260507114027 | 48 | 58 | 1.0 | 3.0 | 0.00 | 0.17 | 0.08 | 93 | 1007.3 |
| 20260507113538 | 48 | 187 | 0.0 | 0.0 | 0.00 | 0.17 | 0.08 | 93 | 1007.2 |
| 20260507113048 | 49 | 187 | 0.0 | 0.0 | 0.00 | 0.17 | 0.08 | 93 | 1007.1 |
| 20260507112538 | 48 | 187 | 0.0 | 0.0 | 0.00 | 0.17 | 0.08 | 93 | 1007.1 |
| 20260507112049 | 49 | 187 | 0.0 | 0.0 | 0.00 | 0.17 | 0.08 | 93 | 1007.0 |
| 20260507111520 | 49 | 187 | 0.0 | 0.0 | 0.00 | 0.17 | 0.08 | 93 | 1007.0 |
| 20260507111031 | 49 | 187 | 0.0 | 0.0 | 0.00 | 0.17 | 0.08 | 93 | 1007.0 |
| 20260507110523 | 48 | 187 | 0.0 | 0.0 | 0.01 | 0.17 | 0.08 | 93 | 1007.1 |
| 20260507110034 | 48 | 187 | 0.0 | 0.0 | 0.01 | 0.17 | 0.08 | 93 | 1007.2 |
| 20260507105524 | 48 | 187 | 0.0 | 0.0 | 0.02 | 0.17 | 0.08 | 93 | 1007.3 |
| 20260507105039 | 48 | 187 | 0.0 | 0.0 | 0.02 | 0.17 | 0.08 | 93 | 1007.3 |
| 20260507104529 | 48 | 187 | 0.0 | 0.0 | 0.02 | 0.17 | 0.08 | 92 | 1007.1 |
| 20260507104100 | 49 | 187 | 0.0 | 0.0 | 0.02 | 0.17 | 0.08 | 93 | 1007.2 |
| 20260507103551 | 49 | 187 | 0.0 | 0.0 | 0.02 | 0.17 | 0.08 | 92 | 1006.9 |
| 20260507103021 | 48 | 187 | 0.0 | 0.0 | 0.03 | 0.17 | 0.08 | 92 | 1006.7 |
| 20260507102531 | 48 | 187 | 0.0 | 0.0 | 0.04 | 0.17 | 0.08 | 92 | 1006.8 |
| 20260507102021 | 48 | 187 | 0.0 | 0.0 | 0.05 | 0.17 | 0.08 | 92 | 1006.9 |
| 20260507101552 | 48 | 187 | 0.0 | 0.0 | 0.05 | 0.17 | 0.08 | 92 | 1006.8 |
| 20260507101022 | 49 | 187 | 0.0 | 0.0 | 0.05 | 0.17 | 0.08 | 92 | 1006.7 |
| 20260507100532 | 49 | 187 | 0.0 | 0.0 | 0.04 | 0.16 | 0.07 | 91 | 1006.5 |
| 20260507100027 | 49 | 187 | 0.0 | 1.0 | 0.05 | 0.16 | 0.07 | 91 | 1006.5 |
| 20260507095539 | 49 | 187 | 0.0 | 2.0 | 0.04 | 0.15 | 0.06 | 91 | 1006.4 |
| 20260507095030 | 49 | 187 | 0.0 | 2.0 | 0.04 | 0.15 | 0.06 | 91 | 1006.3 |
| 20260507094540 | 49 | 187 | 0.0 | 2.0 | 0.04 | 0.15 | 0.06 | 91 | 1006.5 |
| 20260507094030 | 49 | 185 | 1.0 | 2.0 | 0.04 | 0.15 | 0.06 | 90 | 1006.7 |
| 20260507093521 | 49 | 96 | 1.0 | 2.0 | 0.04 | 0.15 | 0.06 | 90 | 1006.5 |
| 20260507093033 | 49 | 96 | 1.0 | 2.0 | 0.03 | 0.14 | 0.05 | 89 | 1006.5 |
| 20260507092524 | 50 | 113 | 0.0 | 2.0 | 0.02 | 0.13 | 0.04 | 89 | 1006.5 |
| 20260507092035 | 50 | 113 | 1.0 | 6.0 | 0.01 | 0.12 | 0.03 | 89 | 1006.6 |
| 20260507091530 | 50 | 105 | 2.0 | 6.0 | 0.01 | 0.12 | 0.03 | 88 | 1006.5 |
| 20260507091040 | 50 | 127 | 2.0 | 5.0 | 0.01 | 0.12 | 0.03 | 88 | 1006.8 |
| 20260507090529 | 50 | 105 | 2.0 | 5.0 | 0.01 | 0.11 | 0.02 | 87 | 1006.7 |
| 20260507090021 | 50 | 41 | 1.0 | 6.0 | 0.01 | 0.11 | 0.02 | 87 | 1006.5 |
| 20260507085532 | 51 | 199 | 2.0 | 4.0 | 0.01 | 0.11 | 0.02 | 87 | 1006.5 |
| 20260507085042 | 51 | 189 | 1.0 | 3.0 | 0.02 | 0.11 | 0.02 | 87 | 1006.5 |
| 20260507084532 | 51 | 143 | 1.0 | 3.0 | 0.02 | 0.11 | 0.02 | 87 | 1006.3 |
| 20260507084022 | 51 | 68 | 1.0 | 3.0 | 0.02 | 0.11 | 0.02 | 87 | 1006.3 |
| 20260507083532 | 51 | 161 | 1.0 | 4.0 | 0.02 | 0.11 | 0.02 | 87 | 1006.2 |
| 20260507083027 | 51 | 124 | 1.0 | 5.0 | 0.02 | 0.11 | 0.02 | 86 | 1006.1 |
| 20260507082538 | 51 | 193 | 3.0 | 5.0 | 0.02 | 0.11 | 0.02 | 86 | 1006.0 |
| 20260507082049 | 51 | 94 | 0.0 | 7.0 | 0.02 | 0.11 | 0.02 | 86 | 1005.9 |
| 20260507081538 | 51 | 93 | 1.0 | 7.0 | 0.02 | 0.11 | 0.02 | 86 | 1006.2 |
| 20260507081029 | 51 | 150 | 3.0 | 6.0 | 0.02 | 0.11 | 0.02 | 86 | 1006.3 |
| 20260507080519 | 51 | 157 | 4.0 | 8.0 | 0.01 | 0.10 | 0.01 | 86 | 1006.3 |
| 20260507080030 | 52 | 132 | 4.0 | 9.0 | 0.01 | 0.10 | 0.01 | 85 | 1006.3 |
| 20260507075520 | 52 | 176 | 3.0 | 11.0 | 0.01 | 0.10 | 0.01 | 83 | 1006.0 |
| 20260507075032 | 53 | 116 | 3.0 | 11.0 | 0.00 | 0.09 | 0.00 | 83 | 1006.2 |
| 20260507074527 | 53 | 148 | 4.0 | 9.0 | 0.00 | 0.09 | 0.00 | 82 | 1006.2 |
| 20260507074037 | 53 | 127 | 2.0 | 4.0 | 0.00 | 0.09 | 0.00 | 84 | 1005.9 |
| 20260507073527 | 53 | 239 | 2.0 | 6.0 | 0.00 | 0.09 | 0.00 | 84 | 1005.6 |
| 20260507073058 | 53 | 262 | 3.0 | 6.0 | 0.00 | 0.09 | 0.00 | 83 | 1005.6 |
| 20260507072527 | 53 | 70 | 2.0 | 5.0 | 0.00 | 0.09 | 0.00 | 84 | 1005.7 |
| 20260507072038 | 53 | 150 | 3.0 | 5.0 | 0.00 | 0.09 | 0.00 | 85 | 1005.6 |
| 20260507071529 | 53 | 53 | 2.0 | 7.0 | 0.00 | 0.09 | 0.00 | 85 | 1005.8 |
| 20260507071020 | 53 | 144 | 3.0 | 7.0 | 0.00 | 0.09 | 0.00 | 86 | 1005.6 |
| 20260507070532 | 54 | 222 | 1.0 | 3.0 | 0.00 | 0.09 | 0.00 | 87 | 1005.5 |
| 20260507070048 | 54 | 143 | 2.0 | 4.0 | 0.00 | 0.09 | 0.00 | 86 | 1005.4 |
| 20260507065536 | 54 | 139 | 1.0 | 5.0 | 0.00 | 0.09 | 0.00 | 86 | 1005.6 |
| 20260507065028 | 54 | 131 | 2.0 | 5.0 | 0.00 | 0.09 | 0.00 | 86 | 1005.6 |
| 20260507064539 | 54 | 33 | 1.0 | 4.0 | 0.00 | 0.09 | 0.00 | 86 | 1005.5 |
| 20260507064030 | 54 | 33 | 1.0 | 7.0 | 0.00 | 0.09 | 0.00 | 86 | 1005.5 |
| 20260507063600 | 54 | 181 | 4.0 | 7.0 | 0.00 | 0.09 | 0.00 | 87 | 1005.4 |
| 20260507063028 | 54 | 176 | 3.0 | 6.0 | 0.00 | 0.09 | 0.00 | 87 | 1005.3 |
| 20260507062600 | 54 | 159 | 3.0 | 8.0 | 0.00 | 0.09 | 0.00 | 87 | 1005.2 |
| 20260507062029 | 55 | 93 | 4.0 | 8.0 | 0.00 | 0.09 | 0.00 | 87 | 1005.4 |
| 20260507061539 | 55 | 160 | 2.0 | 6.0 | 0.00 | 0.09 | 0.00 | 87 | 1005.4 |
| 20260507061034 | 55 | 214 | 2.0 | 5.0 | 0.00 | 0.09 | 0.00 | 87 | 1005.4 |
| 20260507060524 | 55 | 168 | 1.0 | 4.0 | 0.00 | 0.09 | 0.00 | 87 | 1005.6 |
| 20260507060036 | 55 | 129 | 3.0 | 9.0 | 0.00 | 0.09 | 0.00 | 87 | 1005.5 |
| 20260507055527 | 56 | 112 | 3.0 | 10.0 | 0.00 | 0.09 | 0.00 | 88 | 1005.5 |
| 20260507055037 | 56 | 70 | 2.0 | 8.0 | 0.00 | 0.09 | 0.00 | 89 | 1005.7 |
| 20260507054527 | 56 | 229 | 2.0 | 3.0 | 0.00 | 0.09 | 0.00 | 89 | 1005.7 |
| 20260507054059 | 56 | 130 | 2.0 | 4.0 | 0.00 | 0.09 | 0.00 | 89 | 1005.7 |
| 20260507053529 | 56 | 195 | 1.0 | 8.0 | 0.00 | 0.09 | 0.00 | 89 | 1005.6 |
| 20260507053039 | 57 | 105 | 3.0 | 8.0 | 0.00 | 0.09 | 0.00 | 89 | 1005.5 |
| 20260507052533 | 57 | 77 | 2.0 | 7.0 | 0.00 | 0.09 | 0.00 | 89 | 1005.3 |
| 20260507052022 | 57 | 188 | 3.0 | 6.0 | 0.00 | 0.09 | 0.00 | 90 | 1005.2 |
| 20260507051534 | 57 | 185 | 2.0 | 9.0 | 0.00 | 0.09 | 0.00 | 90 | 1005.5 |
| 20260507051025 | 57 | 205 | 2.0 | 9.0 | 0.00 | 0.09 | 0.00 | 90 | 1005.4 |
| 20260507050536 | 58 | 129 | 3.0 | 9.0 | 0.00 | 0.09 | 0.00 | 89 | 1005.5 |
| 20260507050046 | 58 | 143 | 5.0 | 9.0 | 0.00 | 0.09 | 0.00 | 89 | 1005.6 |
| 20260507045536 | 58 | 136 | 5.0 | 8.0 | 0.00 | 0.09 | 0.00 | 89 | 1005.5 |
| 20260507045026 | 58 | 68 | 3.0 | 8.0 | 0.00 | 0.09 | 0.00 | 91 | 1005.4 |
| 20260507044537 | 59 | 190 | 1.0 | 5.0 | 0.00 | 0.09 | 0.00 | 92 | 1005.3 |
| 20260507044047 | 59 | 77 | 1.0 | 4.0 | 0.00 | 0.09 | 0.00 | 93 | 1005.1 |
| 20260507043521 | 59 | 94 | 2.0 | 10.0 | 0.00 | 0.09 | 0.00 | 93 | 1005.3 |
| 20260507043031 | 59 | 174 | 3.0 | 10.0 | 0.00 | 0.09 | 0.00 | 93 | 1005.5 |
| 20260507042522 | 59 | 74 | 2.0 | 6.0 | 0.00 | 0.09 | 0.00 | 93 | 1005.3 |
| 20260507042033 | 59 | 91 | 2.0 | 6.0 | 0.00 | 0.09 | 0.00 | 94 | 1005.4 |
| 20260507041524 | 59 | 25 | 1.0 | 6.0 | 0.00 | 0.09 | 0.00 | 94 | 1005.3 |
| 20260507041033 | 59 | 54 | 2.0 | 5.0 | 0.00 | 0.09 | 0.00 | 94 | 1005.5 |
| 20260507040523 | 59 | 89 | 3.0 | 6.0 | 0.00 | 0.09 | 0.00 | 94 | 1005.5 |
| 20260507040031 | 59 | 90 | 2.0 | 8.0 | 0.00 | 0.09 | 0.09 | 94 | 1005.5 |
| 20260507035541 | 59 | 45 | 2.0 | 8.0 | 0.00 | 0.09 | 0.09 | 94 | 1005.4 |
| 20260507035034 | 59 | 72 | 5.0 | 9.0 | 0.00 | 0.09 | 0.09 | 94 | 1005.2 |
| 20260507034525 | 59 | 70 | 3.0 | 10.0 | 0.00 | 0.09 | 0.09 | 93 | 1005.3 |
| 20260507034034 | 59 | 28 | 2.0 | 10.0 | 0.00 | 0.09 | 0.09 | 93 | 1005.5 |
| 20260507033524 | 59 | 111 | 3.0 | 11.0 | 0.00 | 0.09 | 0.09 | 93 | 1005.4 |
| 20260507033034 | 59 | 80 | 4.0 | 11.0 | 0.00 | 0.09 | 0.09 | 93 | 1005.2 |
| 20260507032525 | 59 | 66 | 3.0 | 9.0 | 0.00 | 0.09 | 0.09 | 92 | 1005.0 |
| 20260507032056 | 59 | 80 | 2.0 | 9.0 | 0.00 | 0.09 | 0.09 | 92 | 1004.8 |
| 20260507031526 | 59 | 43 | 4.0 | 7.0 | 0.00 | 0.09 | 0.09 | 92 | 1004.7 |
| 20260507031038 | 59 | 37 | 3.0 | 6.0 | 0.00 | 0.09 | 0.09 | 92 | 1004.7 |
| 20260507030532 | 59 | 58 | 2.0 | 5.0 | 0.00 | 0.09 | 0.09 | 92 | 1004.6 |
| 20260507030022 | 59 | 340 | 2.0 | 13.0 | 0.00 | 0.09 | 0.09 | 92 | 1004.6 |
| 20260507025552 | 59 | 88 | 3.0 | 13.0 | 0.00 | 0.09 | 0.09 | 92 | 1004.8 |
| 20260507025021 | 59 | 34 | 2.0 | 8.0 | 0.00 | 0.09 | 0.09 | 92 | 1004.7 |
| 20260507024532 | 59 | 54 | 3.0 | 7.0 | 0.00 | 0.09 | 0.09 | 92 | 1004.8 |
| 20260507024024 | 59 | 55 | 4.0 | 7.0 | 0.00 | 0.09 | 0.09 | 92 | 1004.8 |
| 20260507023535 | 59 | 14 | 2.0 | 9.0 | 0.00 | 0.09 | 0.09 | 92 | 1004.9 |
| 20260507023025 | 59 | 103 | 2.0 | 9.0 | 0.00 | 0.09 | 0.09 | 92 | 1005.0 |
| 20260507022536 | 59 | 42 | 1.0 | 8.0 | 0.00 | 0.09 | 0.09 | 92 | 1005.0 |
| 20260507022032 | 59 | 51 | 2.0 | 11.0 | 0.00 | 0.09 | 0.09 | 92 | 1005.0 |
| 20260507021523 | 59 | 65 | 4.0 | 11.0 | 0.00 | 0.09 | 0.09 | 93 | 1004.9 |
| 20260507021033 | 59 | 44 | 2.0 | 11.0 | 0.00 | 0.09 | 0.09 | 93 | 1004.9 |
| 20260507020524 | 58 | 51 | 5.0 | 11.0 | 0.00 | 0.09 | 0.09 | 93 | 1005.0 |
| 20260507020035 | 58 | 79 | 3.0 | 11.0 | 0.00 | 0.09 | 0.09 | 93 | 1005.1 |
| 20260507015526 | 58 | 61 | 4.0 | 12.0 | 0.00 | 0.09 | 0.09 | 93 | 1005.1 |
| 20260507015035 | 58 | 60 | 4.0 | 12.0 | 0.00 | 0.09 | 0.09 | 93 | 1005.2 |
| 20260507014526 | 58 | 332 | 2.0 | 9.0 | 0.00 | 0.09 | 0.09 | 93 | 1005.0 |
| 20260507014021 | 58 | 40 | 3.0 | 9.0 | 0.00 | 0.09 | 0.09 | 93 | 1005.2 |
| 20260507013532 | 58 | 50 | 3.0 | 13.0 | 0.00 | 0.09 | 0.09 | 93 | 1005.2 |
| 20260507013022 | 58 | 53 | 1.0 | 13.0 | 0.00 | 0.09 | 0.09 | 93 | 1005.2 |
| 20260507012534 | 58 | 33 | 5.0 | 12.0 | 0.00 | 0.09 | 0.09 | 93 | 1005.3 |
| 20260507012025 | 58 | 80 | 4.0 | 12.0 | 0.00 | 0.09 | 0.09 | 93 | 1005.3 |
| 20260507011557 | 58 | 41 | 2.0 | 12.0 | 0.00 | 0.09 | 0.09 | 93 | 1005.3 |
| 20260507011027 | 57 | 40 | 1.0 | 9.0 | 0.00 | 0.09 | 0.09 | 93 | 1005.3 |
| 20260507010539 | 57 | 49 | 1.0 | 10.0 | 0.01 | 0.09 | 0.09 | 93 | 1005.4 |
| 20260507010028 | 57 | 65 | 3.0 | 10.0 | 0.01 | 0.09 | 0.09 | 93 | 1005.4 |
| 20260507005558 | 57 | 30 | 4.0 | 8.0 | 0.01 | 0.09 | 0.09 | 93 | 1005.3 |
| 20260507005032 | 57 | 54 | 2.0 | 10.0 | 0.01 | 0.09 | 0.09 | 94 | 1005.3 |
| 20260507004522 | 57 | 15 | 4.0 | 12.0 | 0.01 | 0.09 | 0.09 | 94 | 1005.4 |
| 20260507004033 | 57 | 24 | 2.0 | 12.0 | 0.01 | 0.09 | 0.09 | 94 | 1005.5 |
| 20260507003523 | 57 | 41 | 2.0 | 10.0 | 0.03 | 0.09 | 0.09 | 94 | 1005.4 |
| 20260507003034 | 57 | 31 | 3.0 | 9.0 | 0.03 | 0.09 | 0.09 | 94 | 1005.4 |
| 20260507002526 | 57 | 350 | 3.0 | 12.0 | 0.04 | 0.09 | 0.09 | 93 | 1005.3 |
| 20260507002036 | 57 | 60 | 4.0 | 12.0 | 0.05 | 0.09 | 0.09 | 93 | 1005.2 |
| 20260507001526 | 57 | 31 | 4.0 | 16.0 | 0.05 | 0.09 | 0.09 | 93 | 1005.2 |
| 20260507001019 | 57 | 24 | 4.0 | 16.0 | 0.05 | 0.09 | 0.09 | 93 | 1005.1 |
| 20260507000531 | 57 | 357 | 1.0 | 8.0 | 0.04 | 0.08 | 0.08 | 93 | 1005.2 |
| 20260507000023 | 57 | 39 | 4.0 | 9.0 | 0.04 | 0.08 | 0.08 | 93 | 1005.2 |
| 20260506235533 | 57 | 307 | 2.0 | 9.0 | 0.04 | 0.08 | 0.08 | 93 | 1005.3 |
| 20260506235024 | 57 | 360 | 2.0 | 6.0 | 0.04 | 0.08 | 0.08 | 93 | 1005.3 |
| 20260506234535 | 57 | 299 | 3.0 | 7.0 | 0.04 | 0.08 | 0.08 | 93 | 1005.2 |
| 20260506234025 | 57 | 49 | 3.0 | 11.0 | 0.04 | 0.08 | 0.08 | 92 | 1005.2 |
| 20260506233537 | 57 | 84 | 4.0 | 11.0 | 0.02 | 0.06 | 0.06 | 92 | 1005.2 |
| 20260506233027 | 57 | 336 | 3.0 | 9.0 | 0.02 | 0.06 | 0.06 | 92 | 1005.1 |
| 20260506232522 | 58 | 357 | 3.0 | 9.0 | 0.01 | 0.05 | 0.05 | 92 | 1005.3 |
| 20260506232033 | 58 | 32 | 3.0 | 10.0 | 0.00 | 0.04 | 0.04 | 92 | 1005.3 |
| 20260506231523 | 58 | 51 | 3.0 | 10.0 | 0.00 | 0.04 | 0.04 | 92 | 1005.2 |
| 20260506231055 | 58 | 15 | 3.0 | 11.0 | 0.00 | 0.04 | 0.04 | 92 | 1005.2 |
| 20260506230544 | 58 | 350 | 4.0 | 11.0 | 0.01 | 0.04 | 0.04 | 91 | 1005.3 |
| 20260506230033 | 58 | 328 | 5.0 | 11.0 | 0.01 | 0.04 | 0.04 | 91 | 1005.4 |
| 20260506225524 | 58 | 349 | 4.0 | 8.0 | 0.01 | 0.04 | 0.04 | 91 | 1005.4 |
| 20260506225035 | 59 | 342 | 3.0 | 12.0 | 0.01 | 0.04 | 0.04 | 91 | 1005.3 |
| 20260506224524 | 59 | 17 | 5.0 | 13.0 | 0.01 | 0.04 | 0.04 | 91 | 1005.3 |
| 20260506224034 | 59 | 91 | 6.0 | 15.0 | 0.01 | 0.04 | 0.04 | 91 | 1005.3 |
| 20260506223530 | 59 | 28 | 5.0 | 15.0 | 0.01 | 0.04 | 0.04 | 91 | 1005.4 |
| 20260506223040 | 59 | 8 | 4.0 | 8.0 | 0.01 | 0.04 | 0.04 | 91 | 1005.4 |
| 20260506222551 | 59 | 35 | 3.0 | 9.0 | 0.01 | 0.04 | 0.04 | 91 | 1005.6 |
| 20260506222020 | 59 | 14 | 3.0 | 9.0 | 0.01 | 0.04 | 0.04 | 90 | 1005.5 |
| 20260506221531 | 60 | 302 | 2.0 | 11.0 | 0.01 | 0.04 | 0.04 | 90 | 1005.5 |
| 20260506221022 | 60 | 72 | 5.0 | 11.0 | 0.00 | 0.03 | 0.03 | 90 | 1005.7 |
| 20260506220555 | 60 | 15 | 5.0 | 13.0 | 0.00 | 0.03 | 0.03 | 89 | 1005.8 |
| 20260506220025 | 60 | 51 | 3.0 | 13.0 | 0.00 | 0.03 | 0.03 | 88 | 1005.8 |
| 20260506215533 | 60 | 17 | 4.0 | 13.0 | 0.00 | 0.03 | 0.03 | 88 | 1005.9 |
| 20260506215024 | 60 | 360 | 6.0 | 13.0 | 0.01 | 0.03 | 0.03 | 88 | 1005.9 |
| 20260506214538 | 61 | 44 | 5.0 | 13.0 | 0.01 | 0.03 | 0.03 | 88 | 1005.9 |
| 20260506214027 | 61 | 79 | 3.0 | 13.0 | 0.01 | 0.03 | 0.03 | 88 | 1005.9 |
| 20260506213558 | 61 | 8 | 6.0 | 12.0 | 0.01 | 0.03 | 0.03 | 88 | 1005.9 |
| 20260506213047 | 60 | 28 | 5.0 | 14.0 | 0.01 | 0.03 | 0.03 | 87 | 1005.9 |
| 20260506212538 | 60 | 336 | 5.0 | 18.0 | 0.01 | 0.03 | 0.03 | 87 | 1006.0 |
| 20260506212028 | 60 | 11 | 4.0 | 12.0 | 0.01 | 0.03 | 0.03 | 87 | 1006.0 |
| 20260506211540 | 60 | 12 | 4.0 | 14.0 | 0.02 | 0.03 | 0.03 | 87 | 1006.1 |
| 20260506211051 | 60 | 56 | 3.0 | 14.0 | 0.02 | 0.03 | 0.03 | 87 | 1006.1 |
| 20260506210521 | 60 | 340 | 3.0 | 12.0 | 0.02 | 0.03 | 0.03 | 87 | 1006.2 |
| 20260506210053 | 60 | 23 | 6.0 | 12.0 | 0.02 | 0.03 | 0.03 | 86 | 1006.3 |
| 20260506205522 | 61 | 41 | 4.0 | 11.0 | 0.02 | 0.03 | 0.03 | 85 | 1006.3 |
| 20260506205053 | 61 | 51 | 3.0 | 11.0 | 0.01 | 0.02 | 0.02 | 84 | 1006.3 |
| 20260506204526 | 61 | 56 | 2.0 | 11.0 | 0.02 | 0.02 | 0.02 | 83 | 1006.3 |
| 20260506204034 | 62 | 14 | 5.0 | 15.0 | 0.02 | 0.02 | 0.02 | 82 | 1006.3 |
| 20260506203524 | 62 | 61 | 3.0 | 15.0 | 0.02 | 0.02 | 0.02 | 82 | 1006.3 |
| 20260506203035 | 62 | 22 | 4.0 | 15.0 | 0.02 | 0.02 | 0.02 | 82 | 1006.3 |
| 20260506202526 | 62 | 69 | 4.0 | 15.0 | 0.02 | 0.02 | 0.02 | 82 | 1006.2 |
| 20260506202037 | 62 | 45 | 5.0 | 15.0 | 0.02 | 0.02 | 0.02 | 82 | 1005.9 |
| 20260506201548 | 62 | 27 | 2.0 | 13.0 | 0.01 | 0.01 | 0.01 | 83 | 1006.0 |
| 20260506201037 | 62 | 350 | 5.0 | 14.0 | 0.01 | 0.01 | 0.01 | 83 | 1006.0 |
| 20260506200529 | 62 | 358 | 3.0 | 14.0 | 0.01 | 0.01 | 0.01 | 82 | 1006.1 |
| 20260506200024 | 62 | 19 | 4.0 | 13.0 | 0.01 | 0.01 | 0.01 | 82 | 1006.1 |
| 20260506195556 | 62 | 39 | 4.0 | 13.0 | 0.01 | 0.01 | 0.01 | 81 | 1006.3 |
| 20260506195025 | 63 | 21 | 5.0 | 11.0 | 0.01 | 0.01 | 0.01 | 80 | 1006.4 |
| 20260506194536 | 63 | 349 | 3.0 | 11.0 | 0.00 | 0.00 | 0.00 | 79 | 1006.3 |
| 20260506194026 | 63 | 321 | 1.0 | 12.0 | 0.00 | 0.00 | 0.00 | 79 | 1006.5 |
| 20260506193536 | 64 | 314 | 2.0 | 12.0 | 0.00 | 0.00 | 0.00 | 78 | 1006.5 |
| 20260506193026 | 64 | 34 | 3.0 | 8.0 | 0.00 | 0.00 | 0.00 | 76 | 1006.4 |
| 20260506192535 | 65 | 302 | 2.0 | 10.0 | 0.00 | 0.00 | 0.00 | 75 | 1006.4 |
| 20260506192045 | 65 | 23 | 2.0 | 10.0 | 0.00 | 0.00 | 0.00 | 73 | 1006.4 |
| 20260506191535 | 65 | 41 | 4.0 | 15.0 | 0.00 | 0.00 | 0.00 | 72 | 1006.2 |
| 20260506191029 | 65 | 356 | 3.0 | 17.0 | 0.00 | 0.00 | 0.00 | 72 | 1006.3 |
| 20260506190539 | 65 | 32 | 4.0 | 17.0 | 0.00 | 0.00 | 0.00 | 71 | 1006.3 |
| 20260506190030 | 66 | 33 | 4.0 | 16.0 | 0.00 | 0.00 | 0.00 | 71 | 1006.3 |
| 20260506185521 | 66 | 34 | 6.0 | 13.0 | 0.00 | 0.00 | 0.00 | 71 | 1006.3 |
| 20260506185032 | 66 | 37 | 4.0 | 18.0 | 0.00 | 0.00 | 0.00 | 70 | 1006.3 |
| 20260506184524 | 66 | 25 | 4.0 | 18.0 | 0.00 | 0.00 | 0.00 | 70 | 1006.3 |
| 20260506184034 | 66 | 349 | 2.0 | 12.0 | 0.00 | 0.00 | 0.00 | 71 | 1006.3 |
| 20260506183544 | 66 | 326 | 3.0 | 13.0 | 0.00 | 0.00 | 0.00 | 70 | 1006.4 |
| 20260506183054 | 66 | 6 | 5.0 | 13.0 | 0.00 | 0.00 | 0.00 | 70 | 1006.4 |
| 20260506182544 | 66 | 348 | 3.0 | 15.0 | 0.00 | 0.00 | 0.00 | 69 | 1006.4 |
| 20260506182053 | 67 | 20 | 3.0 | 13.0 | 0.00 | 0.00 | 0.00 | 69 | 1006.4 |
| 20260506181526 | 67 | 309 | 5.0 | 13.0 | 0.00 | 0.00 | 0.00 | 68 | 1006.5 |
| 20260506181037 | 67 | 51 | 5.0 | 12.0 | 0.00 | 0.00 | 0.00 | 69 | 1006.7 |
| 20260506180529 | 67 | 359 | 4.0 | 14.0 | 0.00 | 0.00 | 0.00 | 69 | 1006.8 |
| 20260506180019 | 67 | 30 | 5.0 | 14.0 | 0.00 | 0.00 | 0.00 | 69 | 1006.8 |
| 20260506175531 | 67 | 6 | 6.0 | 14.0 | 0.00 | 0.00 | 0.00 | 69 | 1006.9 |
| 20260506175041 | 67 | 31 | 5.0 | 16.0 | 0.00 | 0.00 | 0.00 | 68 | 1007.0 |
| 20260506174531 | 67 | 30 | 7.0 | 16.0 | 0.00 | 0.00 | 0.00 | 68 | 1007.0 |
| 20260506174021 | 67 | 53 | 3.0 | 13.0 | 0.00 | 0.00 | 0.00 | 68 | 1007.0 |
| 20260506173551 | 68 | 20 | 6.0 | 13.0 | 0.00 | 0.00 | 0.00 | 67 | 1007.1 |
| 20260506173040 | 68 | 27 | 3.0 | 12.0 | 0.00 | 0.00 | 0.00 | 68 | 1007.1 |
| 20260506172550 | 67 | 62 | 5.0 | 12.0 | 0.00 | 0.00 | 0.00 | 68 | 1007.0 |
| 20260506172022 | 67 | 334 | 5.0 | 11.0 | 0.00 | 0.00 | 0.00 | 70 | 1007.0 |
| 20260506171534 | 66 | 330 | 4.0 | 15.0 | 0.00 | 0.00 | 0.00 | 70 | 1007.1 |
| 20260506171025 | 66 | 40 | 4.0 | 9.0 | 0.00 | 0.00 | 0.00 | 70 | 1007.1 |
| 20260506170556 | 66 | 38 | 4.0 | 8.0 | 0.00 | 0.00 | 0.00 | 70 | 1007.2 |
| 20260506170025 | 66 | 26 | 3.0 | 10.0 | 0.00 | 0.00 | 0.00 | 70 | 1007.3 |
| 20260506165536 | 66 | 5 | 6.0 | 12.0 | 0.00 | 0.00 | 0.00 | 70 | 1007.4 |
| 20260506165026 | 66 | 6 | 5.0 | 14.0 | 0.00 | 0.00 | 0.00 | 70 | 1007.3 |
| 20260506164536 | 66 | 343 | 4.0 | 14.0 | 0.00 | 0.00 | 0.00 | 70 | 1007.4 |
| 20260506164027 | 67 | 39 | 5.0 | 14.0 | 0.00 | 0.00 | 0.00 | 69 | 1007.4 |
| 20260506163520 | 67 | 70 | 5.0 | 13.0 | 0.00 | 0.00 | 0.00 | 69 | 1007.5 |
| 20260506163051 | 67 | 42 | 4.0 | 15.0 | 0.00 | 0.00 | 0.00 | 69 | 1007.6 |
| 20260506162542 | 67 | 30 | 7.0 | 17.0 | 0.00 | 0.00 | 0.00 | 68 | 1007.7 |
| 20260506162051 | 67 | 63 | 4.0 | 17.0 | 0.00 | 0.00 | 0.00 | 68 | 1007.8 |
| 20260506161519 | 67 | 335 | 4.0 | 14.0 | 0.00 | 0.00 | 0.00 | 68 | 1007.8 |
| 20260506161030 | 67 | 40 | 4.0 | 11.0 | 0.00 | 0.00 | 0.00 | 68 | 1007.8 |
| 20260506160521 | 67 | 40 | 4.0 | 11.0 | 0.00 | 0.00 | 0.00 | 68 | 1008.0 |
| 20260506160032 | 68 | 358 | 3.0 | 14.0 | 0.00 | 0.00 | 0.00 | 68 | 1008.1 |
| 20260506155544 | 68 | 328 | 6.0 | 14.0 | 0.00 | 0.00 | 0.00 | 67 | 1008.3 |
| 20260506155034 | 68 | 24 | 5.0 | 12.0 | 0.00 | 0.00 | 0.00 | 67 | 1008.3 |
| 20260506154545 | 69 | 269 | 5.0 | 14.0 | 0.00 | 0.00 | 0.00 | 66 | 1008.4 |
| 20260506154019 | 69 | 44 | 4.0 | 14.0 | 0.00 | 0.00 | 0.00 | 65 | 1008.4 |
| 20260506153531 | 69 | 306 | 3.0 | 12.0 | 0.00 | 0.00 | 0.00 | 65 | 1008.5 |
| 20260506153022 | 69 | 23 | 5.0 | 13.0 | 0.00 | 0.00 | 0.00 | 66 | 1008.4 |
| 20260506152533 | 69 | 22 | 5.0 | 13.0 | 0.00 | 0.00 | 0.00 | 66 | 1008.6 |
| 20260506152023 | 69 | 1 | 6.0 | 16.0 | 0.00 | 0.00 | 0.00 | 66 | 1008.7 |
| 20260506151534 | 68 | 68 | 8.0 | 16.0 | 0.00 | 0.00 | 0.00 | 67 | 1008.7 |
| 20260506151024 | 68 | 30 | 4.0 | 15.0 | 0.00 | 0.00 | 0.00 | 68 | 1008.8 |
| 20260506150534 | 68 | 4 | 7.0 | 15.0 | 0.00 | 0.00 | 0.00 | 68 | 1008.8 |
| 20260506150024 | 68 | 32 | 2.0 | 13.0 | 0.00 | 0.00 | 0.00 | 69 | 1008.9 |
| 20260506145556 | 67 | 23 | 5.0 | 14.0 | 0.00 | 0.00 | 0.00 | 69 | 1008.8 |
| 20260506145028 | 67 | 49 | 3.0 | 15.0 | 0.00 | 0.00 | 0.00 | 69 | 1008.8 |
| 20260506144519 | 67 | 49 | 6.0 | 15.0 | 0.00 | 0.00 | 0.00 | 69 | 1008.7 |
| 20260506144030 | 67 | 345 | 6.0 | 14.0 | 0.00 | 0.00 | 0.00 | 70 | 1008.7 |
| 20260506143521 | 66 | 330 | 5.0 | 15.0 | 0.00 | 0.00 | 0.00 | 71 | 1008.7 |
| 20260506143033 | 66 | 32 | 8.0 | 15.0 | 0.00 | 0.00 | 0.00 | 71 | 1008.6 |
| 20260506142524 | 65 | 320 | 5.0 | 16.0 | 0.00 | 0.00 | 0.00 | 72 | 1008.6 |
| 20260506142035 | 65 | 29 | 6.0 | 16.0 | 0.00 | 0.00 | 0.00 | 73 | 1008.7 |
| 20260506141526 | 65 | 49 | 5.0 | 16.0 | 0.00 | 0.00 | 0.00 | 74 | 1008.7 |
| 20260506141040 | 64 | 50 | 4.0 | 11.0 | 0.00 | 0.00 | 0.00 | 74 | 1008.7 |
| 20260506140530 | 64 | 23 | 6.0 | 11.0 | 0.00 | 0.00 | 0.00 | 74 | 1008.8 |
| 20260506140021 | 64 | 9 | 5.0 | 11.0 | 0.00 | 0.00 | 0.00 | 75 | 1008.9 |
| 20260506135531 | 64 | 44 | 5.0 | 14.0 | 0.00 | 0.00 | 0.00 | 75 | 1008.8 |
| 20260506135041 | 64 | 43 | 6.0 | 14.0 | 0.00 | 0.00 | 0.00 | 75 | 1009.0 |
| 20260506134531 | 64 | 349 | 5.0 | 16.0 | 0.00 | 0.00 | 0.00 | 75 | 1009.2 |
| 20260506134021 | 64 | 30 | 5.0 | 16.0 | 0.00 | 0.00 | 0.00 | 75 | 1009.2 |
| 20260506133532 | 64 | 20 | 5.0 | 15.0 | 0.00 | 0.00 | 0.00 | 75 | 1009.3 |
| 20260506133022 | 64 | 334 | 3.0 | 15.0 | 0.00 | 0.00 | 0.00 | 76 | 1009.3 |
| 20260506132534 | 64 | 359 | 7.0 | 15.0 | 0.00 | 0.00 | 0.00 | 76 | 1009.2 |
| 20260506132028 | 64 | 31 | 4.0 | 10.0 | 0.00 | 0.00 | 0.00 | 76 | 1009.1 |
| 20260506131538 | 64 | 53 | 6.0 | 16.0 | 0.00 | 0.00 | 0.00 | 76 | 1009.1 |
| 20260506131029 | 63 | 345 | 5.0 | 17.0 | 0.00 | 0.00 | 0.00 | 76 | 1009.1 |
| 20260506130559 | 63 | 34 | 4.0 | 17.0 | 0.00 | 0.00 | 0.00 | 77 | 1009.1 |
| 20260506130028 | 63 | 39 | 5.0 | 11.0 | 0.00 | 0.00 | 0.00 | 77 | 1009.2 |
| 20260506125520 | 63 | 312 | 3.0 | 10.0 | 0.00 | 0.00 | 0.00 | 79 | 1009.1 |
| 20260506125030 | 62 | 357 | 4.0 | 9.0 | 0.00 | 0.00 | 0.00 | 80 | 1009.2 |
| 20260506124520 | 61 | 28 | 4.0 | 11.0 | 0.00 | 0.00 | 0.00 | 80 | 1009.4 |
| 20260506124031 | 61 | 21 | 3.0 | 11.0 | 0.00 | 0.00 | 0.00 | 81 | 1009.4 |
| 20260506123527 | 61 | 39 | 4.0 | 14.0 | 0.00 | 0.00 | 0.00 | 81 | 1009.4 |
| 20260506123058 | 61 | 46 | 5.0 | 12.0 | 0.00 | 0.00 | 0.00 | 81 | 1009.3 |
| 20260506122549 | 61 | 63 | 7.0 | 13.0 | 0.00 | 0.00 | 0.00 | 81 | 1009.2 |
| 20260506122038 | 61 | 358 | 6.0 | 14.0 | 0.00 | 0.00 | 0.00 | 82 | 1009.1 |
| 20260506121529 | 60 | 23 | 5.0 | 14.0 | 0.00 | 0.00 | 0.00 | 82 | 1009.1 |